Gig Harbor, Washington
Current Conditions -  °F | °C
As of 4:53 AM on Wednesday 22 Oct 2014 (Local Time) from KTIW Reporting Station
Moderate Rain Moderate Rain  
Wind Chill: 55°   Ceiling: 5500
Heat Index: 55°   Visibility: 7mi
Dew Point: 51°   Wind: 12mph
Humidity: 86%   Direction: 180°S
Pressure: 29.67"   Gusts: NA
Location:  47.33°N, 122.59°W
Report Text: KTIW 221153Z AUTO 18010KT 7SM RA FEW045 BKN055 OVC075 13/11 A2967 RMK AO2 SLP045 P0006 60010 70013 T01280106 10156 20128 55010
Loading
Personal Weather Stations






























Interactive Weather Map
Tropical Storm Tracking
New forecast layout! Learn more

10-Day Weather Forecast

Advertisements
Track Severe Weather on mobile